sensor_id;sensor_type;location;lat;lon;timestamp;P1;durP1;ratioP1;P2;durP2;ratioP2
14965;SDS011;7577;45.226;5.798;2023-04-03T00:01:41;0.70;;;0.40;;
14965;SDS011;7577;45.226;5.798;2023-04-03T00:04:18;0.60;;;0.57;;
14965;SDS011;7577;45.226;5.798;2023-04-03T00:06:48;0.63;;;0.47;;
14965;SDS011;7577;45.226;5.798;2023-04-03T00:09:19;0.40;;;0.30;;
14965;SDS011;7577;45.226;5.798;2023-04-03T00:11:49;0.43;;;0.40;;
14965;SDS011;7577;45.226;5.798;2023-04-03T00:14:26;0.40;;;0.30;;
14965;SDS011;7577;45.226;5.798;2023-04-03T00:16:56;0.40;;;0.40;;
14965;SDS011;7577;45.226;5.798;2023-04-03T00:19:26;0.70;;;0.50;;
14965;SDS011;7577;45.226;5.798;2023-04-03T00:21:57;0.70;;;0.40;;
14965;SDS011;7577;45.226;5.798;2023-04-03T00:24:34;0.70;;;0.50;;
14965;SDS011;7577;45.226;5.798;2023-04-03T00:27:04;0.20;;;0.20;;
14965;SDS011;7577;45.226;5.798;2023-04-03T00:29:34;0.43;;;0.30;;
14965;SDS011;7577;45.226;5.798;2023-04-03T00:32:04;0.60;;;0.30;;
14965;SDS011;7577;45.226;5.798;2023-04-03T00:34:34;0.30;;;0.30;;
14965;SDS011;7577;45.226;5.798;2023-04-03T00:37:05;0.40;;;0.40;;
14965;SDS011;7577;45.226;5.798;2023-04-03T00:39:43;0.33;;;0.33;;
14965;SDS011;7577;45.226;5.798;2023-04-03T00:42:13;0.67;;;0.50;;
14965;SDS011;7577;45.226;5.798;2023-04-03T00:47:59;0.30;;;0.30;;
14965;SDS011;7577;45.226;5.798;2023-04-03T00:50:40;0.30;;;0.30;;
14965;SDS011;7577;45.226;5.798;2023-04-03T00:53:13;0.43;;;0.33;;
14965;SDS011;7577;45.226;5.798;2023-04-03T00:55:46;0.20;;;0.20;;
14965;SDS011;7577;45.226;5.798;2023-04-03T00:58:18;1.27;;;0.30;;
14965;SDS011;7577;45.226;5.798;2023-04-03T01:00:52;0.40;;;0.40;;
14965;SDS011;7577;45.226;5.798;2023-04-03T01:03:30;1.27;;;0.50;;
14965;SDS011;7577;45.226;5.798;2023-04-03T01:06:00;0.37;;;0.30;;
14965;SDS011;7577;45.226;5.798;2023-04-03T01:08:30;0.30;;;0.30;;
14965;SDS011;7577;45.226;5.798;2023-04-03T01:11:08;0.20;;;0.20;;
14965;SDS011;7577;45.226;5.798;2023-04-03T01:13:38;0.53;;;0.40;;
14965;SDS011;7577;45.226;5.798;2023-04-03T01:16:08;1.23;;;0.40;;
14965;SDS011;7577;45.226;5.798;2023-04-03T01:18:39;0.40;;;0.40;;
14965;SDS011;7577;45.226;5.798;2023-04-03T01:24:13;0.60;;;0.50;;
14965;SDS011;7577;45.226;5.798;2023-04-03T01:26:56;0.40;;;0.40;;
14965;SDS011;7577;45.226;5.798;2023-04-03T01:29:26;0.50;;;0.50;;
14965;SDS011;7577;45.226;5.798;2023-04-03T01:31:57;0.30;;;0.30;;
14965;SDS011;7577;45.226;5.798;2023-04-03T01:34:30;0.30;;;0.30;;
14965;SDS011;7577;45.226;5.798;2023-04-03T01:37:00;0.37;;;0.33;;
14965;SDS011;7577;45.226;5.798;2023-04-03T01:39:30;0.40;;;0.40;;
14965;SDS011;7577;45.226;5.798;2023-04-03T01:42:00;0.30;;;0.30;;
14965;SDS011;7577;45.226;5.798;2023-04-03T01:44:31;0.30;;;0.30;;
14965;SDS011;7577;45.226;5.798;2023-04-03T01:47:01;1.13;;;0.30;;
14965;SDS011;7577;45.226;5.798;2023-04-03T01:49:42;0.33;;;0.33;;
14965;SDS011;7577;45.226;5.798;2023-04-03T01:52:12;0.30;;;0.30;;
14965;SDS011;7577;45.226;5.798;2023-04-03T01:54:43;0.30;;;0.30;;
14965;SDS011;7577;45.226;5.798;2023-04-03T01:57:13;2.40;;;0.50;;
14965;SDS011;7577;45.226;5.798;2023-04-03T01:59:43;0.63;;;0.30;;
14965;SDS011;7577;45.226;5.798;2023-04-03T02:02:22;0.40;;;0.37;;
14965;SDS011;7577;45.226;5.798;2023-04-03T02:04:52;0.50;;;0.50;;
14965;SDS011;7577;45.226;5.798;2023-04-03T02:07:22;0.43;;;0.33;;
14965;SDS011;7577;45.226;5.798;2023-04-03T02:09:52;0.30;;;0.30;;
14965;SDS011;7577;45.226;5.798;2023-04-03T02:12:23;1.00;;;0.40;;
14965;SDS011;7577;45.226;5.798;2023-04-03T02:14:53;0.50;;;0.40;;
14965;SDS011;7577;45.226;5.798;2023-04-03T02:17:30;0.30;;;0.20;;
14965;SDS011;7577;45.226;5.798;2023-04-03T02:20:01;0.83;;;0.43;;
14965;SDS011;7577;45.226;5.798;2023-04-03T02:22:31;1.00;;;0.40;;
14965;SDS011;7577;45.226;5.798;2023-04-03T02:25:03;0.40;;;0.40;;
14965;SDS011;7577;45.226;5.798;2023-04-03T02:27:34;0.50;;;0.37;;
14965;SDS011;7577;45.226;5.798;2023-04-03T02:30:13;0.53;;;0.50;;
14965;SDS011;7577;45.226;5.798;2023-04-03T02:32:43;0.40;;;0.40;;
14965;SDS011;7577;45.226;5.798;2023-04-03T02:35:21;0.27;;;0.27;;
14965;SDS011;7577;45.226;5.798;2023-04-03T02:37:51;0.23;;;0.23;;
14965;SDS011;7577;45.226;5.798;2023-04-03T02:40:21;0.63;;;0.50;;
14965;SDS011;7577;45.226;5.798;2023-04-03T02:42:51;0.40;;;0.40;;
14965;SDS011;7577;45.226;5.798;2023-04-03T02:45:22;0.37;;;0.37;;
14965;SDS011;7577;45.226;5.798;2023-04-03T02:48:00;0.30;;;0.30;;
14965;SDS011;7577;45.226;5.798;2023-04-03T02:50:30;0.40;;;0.37;;
14965;SDS011;7577;45.226;5.798;2023-04-03T02:53:00;0.67;;;0.40;;
14965;SDS011;7577;45.226;5.798;2023-04-03T02:55:30;0.30;;;0.30;;
14965;SDS011;7577;45.226;5.798;2023-04-03T02:58:00;0.53;;;0.40;;
14965;SDS011;7577;45.226;5.798;2023-04-03T03:00:30;0.80;;;0.40;;
14965;SDS011;7577;45.226;5.798;2023-04-03T03:03:08;0.30;;;0.30;;
14965;SDS011;7577;45.226;5.798;2023-04-03T03:05:38;0.57;;;0.50;;
14965;SDS011;7577;45.226;5.798;2023-04-03T03:08:08;0.60;;;0.50;;
14965;SDS011;7577;45.226;5.798;2023-04-03T03:10:38;0.40;;;0.40;;
14965;SDS011;7577;45.226;5.798;2023-04-03T03:13:09;0.40;;;0.40;;
14965;SDS011;7577;45.226;5.798;2023-04-03T03:15:39;0.40;;;0.40;;
14965;SDS011;7577;45.226;5.798;2023-04-03T03:18:09;0.30;;;0.30;;
14965;SDS011;7577;45.226;5.798;2023-04-03T03:20:40;0.33;;;0.33;;
14965;SDS011;7577;45.226;5.798;2023-04-03T03:23:10;0.37;;;0.37;;
14965;SDS011;7577;45.226;5.798;2023-04-03T03:25:40;0.70;;;0.30;;
14965;SDS011;7577;45.226;5.798;2023-04-03T03:28:11;0.30;;;0.30;;
14965;SDS011;7577;45.226;5.798;2023-04-03T03:30:40;0.40;;;0.40;;
14965;SDS011;7577;45.226;5.798;2023-04-03T03:33:10;0.47;;;0.40;;
14965;SDS011;7577;45.226;5.798;2023-04-03T03:35:40;0.30;;;0.30;;
14965;SDS011;7577;45.226;5.798;2023-04-03T03:38:11;0.30;;;0.30;;
14965;SDS011;7577;45.226;5.798;2023-04-03T03:40:41;0.73;;;0.40;;
14965;SDS011;7577;45.226;5.798;2023-04-03T03:43:11;0.40;;;0.30;;
14965;SDS011;7577;45.226;5.798;2023-04-03T03:45:41;0.30;;;0.30;;
14965;SDS011;7577;45.226;5.798;2023-04-03T03:48:13;0.30;;;0.30;;
14965;SDS011;7577;45.226;5.798;2023-04-03T03:50:43;0.50;;;0.50;;
14965;SDS011;7577;45.226;5.798;2023-04-03T03:53:13;0.50;;;0.50;;
14965;SDS011;7577;45.226;5.798;2023-04-03T03:55:43;0.47;;;0.30;;
14965;SDS011;7577;45.226;5.798;2023-04-03T03:58:24;0.30;;;0.30;;
14965;SDS011;7577;45.226;5.798;2023-04-03T04:00:54;0.30;;;0.30;;
14965;SDS011;7577;45.226;5.798;2023-04-03T04:03:24;0.30;;;0.30;;
14965;SDS011;7577;45.226;5.798;2023-04-03T04:05:54;0.30;;;0.30;;
14965;SDS011;7577;45.226;5.798;2023-04-03T04:08:31;0.80;;;0.30;;
14965;SDS011;7577;45.226;5.798;2023-04-03T04:11:02;0.20;;;0.20;;
14965;SDS011;7577;45.226;5.798;2023-04-03T04:13:32;0.30;;;0.30;;
14965;SDS011;7577;45.226;5.798;2023-04-03T04:16:02;0.40;;;0.40;;
14965;SDS011;7577;45.226;5.798;2023-04-03T04:18:33;0.30;;;0.30;;
14965;SDS011;7577;45.226;5.798;2023-04-03T04:21:03;0.73;;;0.40;;
14965;SDS011;7577;45.226;5.798;2023-04-03T04:23:34;0.30;;;0.30;;
14965;SDS011;7577;45.226;5.798;2023-04-03T04:26:11;0.30;;;0.30;;
14965;SDS011;7577;45.226;5.798;2023-04-03T04:28:42;0.67;;;0.50;;
14965;SDS011;7577;45.226;5.798;2023-04-03T04:31:12;0.30;;;0.30;;
14965;SDS011;7577;45.226;5.798;2023-04-03T04:33:42;0.30;;;0.30;;
14965;SDS011;7577;45.226;5.798;2023-04-03T04:36:12;0.50;;;0.30;;
14965;SDS011;7577;45.226;5.798;2023-04-03T04:38:42;0.40;;;0.40;;
14965;SDS011;7577;45.226;5.798;2023-04-03T04:41:13;0.33;;;0.33;;
14965;SDS011;7577;45.226;5.798;2023-04-03T04:43:43;0.30;;;0.30;;
14965;SDS011;7577;45.226;5.798;2023-04-03T04:46:13;0.40;;;0.40;;
14965;SDS011;7577;45.226;5.798;2023-04-03T04:48:44;0.40;;;0.40;;
14965;SDS011;7577;45.226;5.798;2023-04-03T04:51:15;0.60;;;0.30;;
14965;SDS011;7577;45.226;5.798;2023-04-03T04:53:46;0.60;;;0.40;;
14965;SDS011;7577;45.226;5.798;2023-04-03T04:56:16;0.40;;;0.40;;
14965;SDS011;7577;45.226;5.798;2023-04-03T04:58:46;0.40;;;0.40;;
14965;SDS011;7577;45.226;5.798;2023-04-03T05:01:16;0.37;;;0.37;;
14965;SDS011;7577;45.226;5.798;2023-04-03T05:03:46;0.40;;;0.40;;
14965;SDS011;7577;45.226;5.798;2023-04-03T05:06:15;0.40;;;0.40;;
14965;SDS011;7577;45.226;5.798;2023-04-03T05:08:45;10.10;;;0.57;;
14965;SDS011;7577;45.226;5.798;2023-04-03T05:11:15;0.30;;;0.30;;
14965;SDS011;7577;45.226;5.798;2023-04-03T05:13:47;0.40;;;0.40;;
14965;SDS011;7577;45.226;5.798;2023-04-03T05:16:17;0.53;;;0.50;;
14965;SDS011;7577;45.226;5.798;2023-04-03T05:18:47;0.40;;;0.40;;
14965;SDS011;7577;45.226;5.798;2023-04-03T05:21:25;0.90;;;0.50;;
14965;SDS011;7577;45.226;5.798;2023-04-03T05:23:57;0.50;;;0.43;;
14965;SDS011;7577;45.226;5.798;2023-04-03T05:26:35;1.47;;;0.60;;
14965;SDS011;7577;45.226;5.798;2023-04-03T05:29:05;0.50;;;0.50;;
14965;SDS011;7577;45.226;5.798;2023-04-03T05:31:37;0.50;;;0.50;;
14965;SDS011;7577;45.226;5.798;2023-04-03T05:34:06;0.50;;;0.50;;
14965;SDS011;7577;45.226;5.798;2023-04-03T05:36:37;0.57;;;0.50;;
14965;SDS011;7577;45.226;5.798;2023-04-03T05:39:07;1.47;;;0.53;;
14965;SDS011;7577;45.226;5.798;2023-04-03T05:41:38;1.70;;;0.50;;
14965;SDS011;7577;45.226;5.798;2023-04-03T05:44:08;0.50;;;0.50;;
14965;SDS011;7577;45.226;5.798;2023-04-03T05:46:38;0.60;;;0.53;;
14965;SDS011;7577;45.226;5.798;2023-04-03T05:49:08;0.80;;;0.60;;
14965;SDS011;7577;45.226;5.798;2023-04-03T05:51:39;1.73;;;0.80;;
14965;SDS011;7577;45.226;5.798;2023-04-03T05:54:11;1.03;;;0.50;;
14965;SDS011;7577;45.226;5.798;2023-04-03T05:56:49;0.40;;;0.40;;
14965;SDS011;7577;45.226;5.798;2023-04-03T05:59:20;0.73;;;0.50;;
14965;SDS011;7577;45.226;5.798;2023-04-03T06:01:51;0.73;;;0.50;;
14965;SDS011;7577;45.226;5.798;2023-04-03T06:04:21;0.60;;;0.60;;
14965;SDS011;7577;45.226;5.798;2023-04-03T06:06:51;0.70;;;0.70;;
14965;SDS011;7577;45.226;5.798;2023-04-03T06:09:23;0.77;;;0.60;;
14965;SDS011;7577;45.226;5.798;2023-04-03T06:11:56;0.60;;;0.60;;
14965;SDS011;7577;45.226;5.798;2023-04-03T06:14:26;1.90;;;0.83;;
14965;SDS011;7577;45.226;5.798;2023-04-03T06:16:57;2.07;;;0.90;;
14965;SDS011;7577;45.226;5.798;2023-04-03T06:19:27;0.60;;;0.50;;
14965;SDS011;7577;45.226;5.798;2023-04-03T06:21:58;0.83;;;0.60;;
14965;SDS011;7577;45.226;5.798;2023-04-03T06:24:28;1.07;;;0.80;;
14965;SDS011;7577;45.226;5.798;2023-04-03T06:26:59;2.80;;;0.80;;
14965;SDS011;7577;45.226;5.798;2023-04-03T06:29:29;3.30;;;0.77;;
14965;SDS011;7577;45.226;5.798;2023-04-03T06:32:07;7.30;;;1.27;;
14965;SDS011;7577;45.226;5.798;2023-04-03T06:34:37;3.17;;;1.00;;
14965;SDS011;7577;45.226;5.798;2023-04-03T06:37:10;3.40;;;0.97;;
14965;SDS011;7577;45.226;5.798;2023-04-03T06:39:45;3.43;;;1.00;;
14965;SDS011;7577;45.226;5.798;2023-04-03T06:42:16;2.57;;;0.90;;
14965;SDS011;7577;45.226;5.798;2023-04-03T06:44:46;3.10;;;0.80;;
14965;SDS011;7577;45.226;5.798;2023-04-03T06:47:24;4.07;;;1.10;;
14965;SDS011;7577;45.226;5.798;2023-04-03T06:49:54;4.57;;;0.77;;
14965;SDS011;7577;45.226;5.798;2023-04-03T06:52:24;1.13;;;0.80;;
14965;SDS011;7577;45.226;5.798;2023-04-03T06:54:54;4.87;;;0.77;;
14965;SDS011;7577;45.226;5.798;2023-04-03T06:57:26;3.27;;;0.80;;
14965;SDS011;7577;45.226;5.798;2023-04-03T06:59:57;2.40;;;0.70;;
14965;SDS011;7577;45.226;5.798;2023-04-03T07:02:27;1.23;;;0.80;;
14965;SDS011;7577;45.226;5.798;2023-04-03T07:04:57;1.33;;;0.70;;
14965;SDS011;7577;45.226;5.798;2023-04-03T07:07:27;0.70;;;0.60;;
14965;SDS011;7577;45.226;5.798;2023-04-03T07:09:58;0.80;;;0.60;;
14965;SDS011;7577;45.226;5.798;2023-04-03T07:12:28;2.43;;;0.80;;
14965;SDS011;7577;45.226;5.798;2023-04-03T07:14:59;1.10;;;0.60;;
14965;SDS011;7577;45.226;5.798;2023-04-03T07:17:30;1.07;;;0.60;;
14965;SDS011;7577;45.226;5.798;2023-04-03T07:20:00;2.10;;;0.70;;
14965;SDS011;7577;45.226;5.798;2023-04-03T07:22:31;1.63;;;0.60;;
14965;SDS011;7577;45.226;5.798;2023-04-03T07:25:01;1.03;;;0.70;;
14965;SDS011;7577;45.226;5.798;2023-04-03T07:27:39;1.47;;;0.70;;
14965;SDS011;7577;45.226;5.798;2023-04-03T07:30:10;1.00;;;0.60;;
14965;SDS011;7577;45.226;5.798;2023-04-03T07:32:42;0.80;;;0.60;;
14965;SDS011;7577;45.226;5.798;2023-04-03T07:35:12;0.53;;;0.53;;
14965;SDS011;7577;45.226;5.798;2023-04-03T07:37:42;0.90;;;0.80;;
14965;SDS011;7577;45.226;5.798;2023-04-03T07:40:21;2.00;;;0.77;;
14965;SDS011;7577;45.226;5.798;2023-04-03T07:42:51;0.97;;;0.63;;
14965;SDS011;7577;45.226;5.798;2023-04-03T07:45:22;0.80;;;0.50;;
14965;SDS011;7577;45.226;5.798;2023-04-03T07:47:52;1.00;;;0.70;;
14965;SDS011;7577;45.226;5.798;2023-04-03T07:50:23;0.73;;;0.40;;
14965;SDS011;7577;45.226;5.798;2023-04-03T07:52:54;0.83;;;0.50;;
14965;SDS011;7577;45.226;5.798;2023-04-03T07:55:25;0.80;;;0.60;;
14965;SDS011;7577;45.226;5.798;2023-04-03T07:57:54;0.80;;;0.40;;
14965;SDS011;7577;45.226;5.798;2023-04-03T08:00:25;0.93;;;0.70;;
14965;SDS011;7577;45.226;5.798;2023-04-03T08:02:56;0.93;;;0.50;;
14965;SDS011;7577;45.226;5.798;2023-04-03T08:05:26;0.57;;;0.57;;
14965;SDS011;7577;45.226;5.798;2023-04-03T08:07:56;0.77;;;0.60;;
14965;SDS011;7577;45.226;5.798;2023-04-03T08:10:27;0.50;;;0.50;;
14965;SDS011;7577;45.226;5.798;2023-04-03T08:12:58;0.70;;;0.70;;
14965;SDS011;7577;45.226;5.798;2023-04-03T08:15:30;0.70;;;0.60;;
14965;SDS011;7577;45.226;5.798;2023-04-03T08:18:00;0.67;;;0.53;;
14965;SDS011;7577;45.226;5.798;2023-04-03T08:20:31;0.67;;;0.67;;
14965;SDS011;7577;45.226;5.798;2023-04-03T08:23:02;0.90;;;0.63;;
14965;SDS011;7577;45.226;5.798;2023-04-03T08:25:32;0.50;;;0.50;;
14965;SDS011;7577;45.226;5.798;2023-04-03T08:28:09;0.87;;;0.60;;
14965;SDS011;7577;45.226;5.798;2023-04-03T08:30:41;0.60;;;0.60;;
14965;SDS011;7577;45.226;5.798;2023-04-03T08:33:13;0.70;;;0.70;;
14965;SDS011;7577;45.226;5.798;2023-04-03T08:35:43;0.70;;;0.70;;
14965;SDS011;7577;45.226;5.798;2023-04-03T08:38:13;0.60;;;0.60;;
14965;SDS011;7577;45.226;5.798;2023-04-03T08:40:43;1.47;;;0.87;;
14965;SDS011;7577;45.226;5.798;2023-04-03T08:43:28;1.03;;;0.80;;
14965;SDS011;7577;45.226;5.798;2023-04-03T08:46:01;0.70;;;0.70;;
14965;SDS011;7577;45.226;5.798;2023-04-03T08:48:34;1.23;;;0.53;;
14965;SDS011;7577;45.226;5.798;2023-04-03T08:51:10;1.87;;;0.70;;
14965;SDS011;7577;45.226;5.798;2023-04-03T08:53:43;1.10;;;0.60;;
14965;SDS011;7577;45.226;5.798;2023-04-03T08:56:16;1.33;;;0.70;;
14965;SDS011;7577;45.226;5.798;2023-04-03T08:58:48;0.67;;;0.60;;
14965;SDS011;7577;45.226;5.798;2023-04-03T09:01:23;0.93;;;0.70;;
14965;SDS011;7577;45.226;5.798;2023-04-03T09:03:55;0.70;;;0.70;;
14965;SDS011;7577;45.226;5.798;2023-04-03T09:06:26;1.10;;;0.80;;
14965;SDS011;7577;45.226;5.798;2023-04-03T09:09:05;0.70;;;0.70;;
14965;SDS011;7577;45.226;5.798;2023-04-03T09:11:40;1.47;;;0.80;;
14965;SDS011;7577;45.226;5.798;2023-04-03T09:14:15;0.80;;;0.80;;
14965;SDS011;7577;45.226;5.798;2023-04-03T09:16:49;0.70;;;0.70;;
14965;SDS011;7577;45.226;5.798;2023-04-03T09:19:28;1.47;;;0.80;;
14965;SDS011;7577;45.226;5.798;2023-04-03T09:21:59;0.73;;;0.70;;
14965;SDS011;7577;45.226;5.798;2023-04-03T09:24:39;0.80;;;0.80;;
14965;SDS011;7577;45.226;5.798;2023-04-03T09:27:11;0.80;;;0.80;;
14965;SDS011;7577;45.226;5.798;2023-04-03T09:29:43;0.80;;;0.80;;
14965;SDS011;7577;45.226;5.798;2023-04-03T09:32:19;1.73;;;0.90;;
14965;SDS011;7577;45.226;5.798;2023-04-03T09:34:51;0.90;;;0.73;;
14965;SDS011;7577;45.226;5.798;2023-04-03T09:37:43;1.33;;;0.63;;
14965;SDS011;7577;45.226;5.798;2023-04-03T09:40:29;0.87;;;0.77;;
14965;SDS011;7577;45.226;5.798;2023-04-03T09:43:02;1.03;;;0.80;;
14965;SDS011;7577;45.226;5.798;2023-04-03T09:45:51;1.10;;;0.90;;
14965;SDS011;7577;45.226;5.798;2023-04-03T09:48:24;1.03;;;0.80;;
14965;SDS011;7577;45.226;5.798;2023-04-03T09:50:59;0.53;;;0.53;;
14965;SDS011;7577;45.226;5.798;2023-04-03T09:53:32;0.90;;;0.80;;
14965;SDS011;7577;45.226;5.798;2023-04-03T09:56:05;0.80;;;0.80;;
14965;SDS011;7577;45.226;5.798;2023-04-03T09:58:47;0.60;;;0.60;;
14965;SDS011;7577;45.226;5.798;2023-04-03T10:01:27;1.57;;;1.10;;
14965;SDS011;7577;45.226;5.798;2023-04-03T10:04:04;1.27;;;0.83;;
14965;SDS011;7577;45.226;5.798;2023-04-03T10:06:37;2.50;;;0.90;;
14965;SDS011;7577;45.226;5.798;2023-04-03T10:09:21;0.97;;;0.87;;
14965;SDS011;7577;45.226;5.798;2023-04-03T10:12:00;0.80;;;0.70;;
14965;SDS011;7577;45.226;5.798;2023-04-03T10:14:33;0.97;;;0.97;;
14965;SDS011;7577;45.226;5.798;2023-04-03T10:17:11;0.73;;;0.73;;
14965;SDS011;7577;45.226;5.798;2023-04-03T10:19:45;0.90;;;0.80;;
14965;SDS011;7577;45.226;5.798;2023-04-03T10:22:23;1.13;;;0.90;;
14965;SDS011;7577;45.226;5.798;2023-04-03T10:25:03;0.77;;;0.77;;
14965;SDS011;7577;45.226;5.798;2023-04-03T10:27:42;0.77;;;0.77;;
14965;SDS011;7577;45.226;5.798;2023-04-03T10:30:21;0.80;;;0.80;;
14965;SDS011;7577;45.226;5.798;2023-04-03T10:33:00;0.77;;;0.77;;
14965;SDS011;7577;45.226;5.798;2023-04-03T10:35:44;2.10;;;1.13;;
14965;SDS011;7577;45.226;5.798;2023-04-03T10:38:18;0.87;;;0.80;;
14965;SDS011;7577;45.226;5.798;2023-04-03T10:40:52;1.60;;;0.90;;
14965;SDS011;7577;45.226;5.798;2023-04-03T10:43:27;2.40;;;0.80;;
14965;SDS011;7577;45.226;5.798;2023-04-03T10:46:01;1.40;;;0.80;;
14965;SDS011;7577;45.226;5.798;2023-04-03T10:48:37;0.60;;;0.60;;
14965;SDS011;7577;45.226;5.798;2023-04-03T10:51:23;1.00;;;0.90;;
14965;SDS011;7577;45.226;5.798;2023-04-03T10:53:57;0.83;;;0.80;;
14965;SDS011;7577;45.226;5.798;2023-04-03T10:56:31;0.70;;;0.70;;
14965;SDS011;7577;45.226;5.798;2023-04-03T10:59:12;1.73;;;0.83;;
14965;SDS011;7577;45.226;5.798;2023-04-03T11:01:53;0.63;;;0.60;;
14965;SDS011;7577;45.226;5.798;2023-04-03T11:04:26;1.67;;;1.00;;
14965;SDS011;7577;45.226;5.798;2023-04-03T11:07:02;1.27;;;0.87;;
14965;SDS011;7577;45.226;5.798;2023-04-03T11:09:34;1.73;;;0.90;;
14965;SDS011;7577;45.226;5.798;2023-04-03T11:12:09;1.43;;;0.90;;
14965;SDS011;7577;45.226;5.798;2023-04-03T11:14:40;1.10;;;0.90;;
14965;SDS011;7577;45.226;5.798;2023-04-03T11:17:15;0.73;;;0.73;;
14965;SDS011;7577;45.226;5.798;2023-04-03T11:19:56;1.10;;;1.00;;
14965;SDS011;7577;45.226;5.798;2023-04-03T11:22:28;2.37;;;0.80;;
14965;SDS011;7577;45.226;5.798;2023-04-03T11:25:04;0.70;;;0.70;;
14965;SDS011;7577;45.226;5.798;2023-04-03T11:27:43;0.90;;;0.90;;
14965;SDS011;7577;45.226;5.798;2023-04-03T11:30:18;0.83;;;0.80;;
14965;SDS011;7577;45.226;5.798;2023-04-03T11:32:56;0.83;;;0.77;;
14965;SDS011;7577;45.226;5.798;2023-04-03T11:35:34;1.40;;;0.80;;
14965;SDS011;7577;45.226;5.798;2023-04-03T11:38:05;1.10;;;0.77;;
14965;SDS011;7577;45.226;5.798;2023-04-03T11:40:37;0.70;;;0.70;;
14965;SDS011;7577;45.226;5.798;2023-04-03T11:43:17;1.00;;;0.90;;
14965;SDS011;7577;45.226;5.798;2023-04-03T11:45:54;0.60;;;0.60;;
14965;SDS011;7577;45.226;5.798;2023-04-03T11:48:50;0.90;;;0.80;;
14965;SDS011;7577;45.226;5.798;2023-04-03T11:54:47;0.83;;;0.60;;
14965;SDS011;7577;45.226;5.798;2023-04-03T12:00:49;0.90;;;0.90;;
14965;SDS011;7577;45.226;5.798;2023-04-03T12:03:54;1.00;;;0.83;;
14965;SDS011;7577;45.226;5.798;2023-04-03T12:09:24;0.90;;;0.70;;
14965;SDS011;7577;45.226;5.798;2023-04-03T12:12:00;0.80;;;0.80;;
14965;SDS011;7577;45.226;5.798;2023-04-03T12:14:41;0.90;;;0.70;;
14965;SDS011;7577;45.226;5.798;2023-04-03T12:17:11;0.80;;;0.80;;
14965;SDS011;7577;45.226;5.798;2023-04-03T12:19:47;0.77;;;0.60;;
14965;SDS011;7577;45.226;5.798;2023-04-03T12:22:19;0.50;;;0.50;;
14965;SDS011;7577;45.226;5.798;2023-04-03T12:24:50;0.90;;;0.73;;
14965;SDS011;7577;45.226;5.798;2023-04-03T12:27:30;1.00;;;0.73;;
14965;SDS011;7577;45.226;5.798;2023-04-03T12:30:07;1.00;;;0.90;;
14965;SDS011;7577;45.226;5.798;2023-04-03T12:33:09;0.70;;;0.70;;
14965;SDS011;7577;45.226;5.798;2023-04-03T12:35:44;2.20;;;0.90;;
14965;SDS011;7577;45.226;5.798;2023-04-03T12:41:16;0.90;;;0.77;;
14965;SDS011;7577;45.226;5.798;2023-04-03T12:43:53;1.33;;;0.80;;
14965;SDS011;7577;45.226;5.798;2023-04-03T12:46:36;1.57;;;0.70;;
14965;SDS011;7577;45.226;5.798;2023-04-03T12:52:16;1.00;;;0.73;;
14965;SDS011;7577;45.226;5.798;2023-04-03T12:54:49;0.90;;;0.70;;
14965;SDS011;7577;45.226;5.798;2023-04-03T12:57:21;1.40;;;0.73;;
14965;SDS011;7577;45.226;5.798;2023-04-03T12:59:54;0.80;;;0.73;;
14965;SDS011;7577;45.226;5.798;2023-04-03T13:02:25;0.60;;;0.60;;
14965;SDS011;7577;45.226;5.798;2023-04-03T13:04:58;0.60;;;0.60;;
14965;SDS011;7577;45.226;5.798;2023-04-03T13:07:30;1.00;;;0.90;;
14965;SDS011;7577;45.226;5.798;2023-04-03T13:10:13;1.43;;;0.70;;
14965;SDS011;7577;45.226;5.798;2023-04-03T13:12:48;0.80;;;0.80;;
14965;SDS011;7577;45.226;5.798;2023-04-03T13:15:20;1.73;;;0.93;;
14965;SDS011;7577;45.226;5.798;2023-04-03T13:17:53;1.10;;;0.80;;
14965;SDS011;7577;45.226;5.798;2023-04-03T13:20:25;1.10;;;1.00;;
14965;SDS011;7577;45.226;5.798;2023-04-03T13:22:58;1.20;;;0.90;;
14965;SDS011;7577;45.226;5.798;2023-04-03T13:25:31;0.80;;;0.80;;
14965;SDS011;7577;45.226;5.798;2023-04-03T13:28:04;0.90;;;0.80;;
14965;SDS011;7577;45.226;5.798;2023-04-03T13:30:37;1.10;;;1.00;;
14965;SDS011;7577;45.226;5.798;2023-04-03T13:33:20;1.27;;;0.80;;
14965;SDS011;7577;45.226;5.798;2023-04-03T13:35:55;0.90;;;0.90;;
14965;SDS011;7577;45.226;5.798;2023-04-03T13:38:26;0.80;;;0.80;;
14965;SDS011;7577;45.226;5.798;2023-04-03T13:41:00;1.23;;;1.00;;
14965;SDS011;7577;45.226;5.798;2023-04-03T13:43:34;1.67;;;0.80;;
14965;SDS011;7577;45.226;5.798;2023-04-03T13:46:20;1.40;;;1.07;;
14965;SDS011;7577;45.226;5.798;2023-04-03T13:48:52;1.00;;;0.90;;
14965;SDS011;7577;45.226;5.798;2023-04-03T13:51:24;0.87;;;0.80;;
14965;SDS011;7577;45.226;5.798;2023-04-03T13:53:57;0.80;;;0.80;;
14965;SDS011;7577;45.226;5.798;2023-04-03T13:56:31;0.80;;;0.80;;
14965;SDS011;7577;45.226;5.798;2023-04-03T13:59:06;0.93;;;0.93;;
14965;SDS011;7577;45.226;5.798;2023-04-03T14:01:53;0.80;;;0.80;;
14965;SDS011;7577;45.226;5.798;2023-04-03T14:04:24;2.00;;;1.07;;
14965;SDS011;7577;45.226;5.798;2023-04-03T14:06:56;0.90;;;0.80;;
14965;SDS011;7577;45.226;5.798;2023-04-03T14:09:27;0.87;;;0.87;;
14965;SDS011;7577;45.226;5.798;2023-04-03T14:12:00;0.90;;;0.80;;
14965;SDS011;7577;45.226;5.798;2023-04-03T14:14:33;0.93;;;0.80;;
14965;SDS011;7577;45.226;5.798;2023-04-03T14:17:10;1.00;;;0.70;;
14965;SDS011;7577;45.226;5.798;2023-04-03T14:19:43;0.80;;;0.80;;
14965;SDS011;7577;45.226;5.798;2023-04-03T14:22:16;0.90;;;0.90;;
14965;SDS011;7577;45.226;5.798;2023-04-03T14:24:49;0.90;;;0.90;;
14965;SDS011;7577;45.226;5.798;2023-04-03T14:27:21;1.73;;;0.90;;
14965;SDS011;7577;45.226;5.798;2023-04-03T14:29:59;0.83;;;0.80;;
14965;SDS011;7577;45.226;5.798;2023-04-03T14:32:31;1.10;;;0.83;;
14965;SDS011;7577;45.226;5.798;2023-04-03T14:35:03;0.83;;;0.83;;
14965;SDS011;7577;45.226;5.798;2023-04-03T14:37:34;1.00;;;0.90;;
14965;SDS011;7577;45.226;5.798;2023-04-03T14:40:06;0.80;;;0.80;;
14965;SDS011;7577;45.226;5.798;2023-04-03T14:42:41;0.97;;;0.80;;
14965;SDS011;7577;45.226;5.798;2023-04-03T14:45:14;0.90;;;0.90;;
14965;SDS011;7577;45.226;5.798;2023-04-03T14:47:46;1.10;;;1.00;;
14965;SDS011;7577;45.226;5.798;2023-04-03T14:50:18;1.00;;;0.90;;
14965;SDS011;7577;45.226;5.798;2023-04-03T14:52:51;0.90;;;0.90;;
14965;SDS011;7577;45.226;5.798;2023-04-03T14:55:23;0.90;;;0.87;;
14965;SDS011;7577;45.226;5.798;2023-04-03T14:57:55;1.03;;;0.90;;
14965;SDS011;7577;45.226;5.798;2023-04-03T15:00:26;1.00;;;0.97;;
14965;SDS011;7577;45.226;5.798;2023-04-03T15:03:04;0.77;;;0.77;;
14965;SDS011;7577;45.226;5.798;2023-04-03T15:05:35;1.67;;;1.10;;
14965;SDS011;7577;45.226;5.798;2023-04-03T15:08:08;0.90;;;0.90;;
14965;SDS011;7577;45.226;5.798;2023-04-03T15:10:47;1.83;;;0.90;;
14965;SDS011;7577;45.226;5.798;2023-04-03T15:13:19;1.10;;;1.00;;
14965;SDS011;7577;45.226;5.798;2023-04-03T15:15:51;1.10;;;1.00;;
14965;SDS011;7577;45.226;5.798;2023-04-03T15:18:22;0.93;;;0.93;;
14965;SDS011;7577;45.226;5.798;2023-04-03T15:20:54;1.43;;;1.10;;
14965;SDS011;7577;45.226;5.798;2023-04-03T15:23:24;0.93;;;0.93;;
14965;SDS011;7577;45.226;5.798;2023-04-03T15:25:55;1.03;;;0.90;;
14965;SDS011;7577;45.226;5.798;2023-04-03T15:28:34;1.03;;;0.93;;
14965;SDS011;7577;45.226;5.798;2023-04-03T15:31:06;1.10;;;1.00;;
14965;SDS011;7577;45.226;5.798;2023-04-03T15:33:45;1.10;;;1.00;;
14965;SDS011;7577;45.226;5.798;2023-04-03T15:36:15;1.40;;;1.20;;
14965;SDS011;7577;45.226;5.798;2023-04-03T15:38:45;0.80;;;0.80;;
14965;SDS011;7577;45.226;5.798;2023-04-03T15:41:15;2.33;;;1.20;;
14965;SDS011;7577;45.226;5.798;2023-04-03T15:43:46;2.33;;;0.93;;
14965;SDS011;7577;45.226;5.798;2023-04-03T15:46:17;1.30;;;0.90;;
14965;SDS011;7577;45.226;5.798;2023-04-03T15:48:47;0.90;;;0.90;;
14965;SDS011;7577;45.226;5.798;2023-04-03T15:51:17;0.87;;;0.87;;
14965;SDS011;7577;45.226;5.798;2023-04-03T15:53:47;2.03;;;0.93;;
14965;SDS011;7577;45.226;5.798;2023-04-03T15:56:17;1.37;;;1.07;;
14965;SDS011;7577;45.226;5.798;2023-04-03T15:58:47;1.00;;;1.00;;